sensor_id;sensor_type;location;lat;lon;timestamp;pressure;altitude;pressure_sealevel;temperature;humidity
52975;BME280;38839;45.186;5.720;2023-08-06T00:00:28;98940.34;;;18.84;94.09
52975;BME280;38839;45.186;5.720;2023-08-06T00:02:53;98929.06;;;18.81;94.73
52975;BME280;38839;45.186;5.720;2023-08-06T00:05:19;98927.22;;;18.83;94.60
52975;BME280;38839;45.186;5.720;2023-08-06T00:07:46;98929.91;;;18.81;94.96
52975;BME280;38839;45.186;5.720;2023-08-06T00:10:12;98926.47;;;18.79;94.96
52975;BME280;38839;45.186;5.720;2023-08-06T00:12:37;98923.69;;;18.82;94.72
52975;BME280;38839;45.186;5.720;2023-08-06T00:15:03;98919.34;;;18.81;94.65
52975;BME280;38839;45.186;5.720;2023-08-06T00:17:28;98917.59;;;18.80;94.40
52975;BME280;38839;45.186;5.720;2023-08-06T00:19:53;98922.97;;;18.77;93.86
52975;BME280;38839;45.186;5.720;2023-08-06T00:22:19;98923.91;;;18.76;92.29
52975;BME280;38839;45.186;5.720;2023-08-06T00:24:44;98920.44;;;18.74;92.07
52975;BME280;38839;45.186;5.720;2023-08-06T00:27:10;98930.13;;;18.75;91.65
52975;BME280;38839;45.186;5.720;2023-08-06T00:29:35;98924.94;;;18.72;91.66
52975;BME280;38839;45.186;5.720;2023-08-06T00:32:01;98921.63;;;18.67;91.17
52975;BME280;38839;45.186;5.720;2023-08-06T00:34:26;98917.94;;;18.71;90.85
52975;BME280;38839;45.186;5.720;2023-08-06T00:36:51;98921.19;;;18.79;90.54
52975;BME280;38839;45.186;5.720;2023-08-06T00:39:18;98919.94;;;18.88;89.78
52975;BME280;38839;45.186;5.720;2023-08-06T00:41:44;98925.09;;;18.91;89.22
52975;BME280;38839;45.186;5.720;2023-08-06T00:44:09;98928.56;;;18.93;89.05
52975;BME280;38839;45.186;5.720;2023-08-06T00:46:34;98927.50;;;18.97;89.14
52975;BME280;38839;45.186;5.720;2023-08-06T00:49:00;98930.31;;;18.93;89.59
52975;BME280;38839;45.186;5.720;2023-08-06T00:51:25;98930.41;;;18.91;89.53
52975;BME280;38839;45.186;5.720;2023-08-06T00:53:52;98920.78;;;18.88;89.77
52975;BME280;38839;45.186;5.720;2023-08-06T00:56:18;98922.63;;;18.86;89.98
52975;BME280;38839;45.186;5.720;2023-08-06T00:58:44;98921.03;;;18.82;89.83
52975;BME280;38839;45.186;5.720;2023-08-06T01:01:10;98923.63;;;18.84;89.12
52975;BME280;38839;45.186;5.720;2023-08-06T01:03:36;98929.91;;;18.81;89.32
52975;BME280;38839;45.186;5.720;2023-08-06T01:06:01;98927.41;;;18.77;89.77
52975;BME280;38839;45.186;5.720;2023-08-06T01:09:01;98932.88;;;18.72;90.99
52975;BME280;38839;45.186;5.720;2023-08-06T01:11:37;98927.81;;;18.66;91.53
52975;BME280;38839;45.186;5.720;2023-08-06T01:14:27;98923.72;;;18.59;92.71
52975;BME280;38839;45.186;5.720;2023-08-06T01:16:54;98932.69;;;18.55;93.57
52975;BME280;38839;45.186;5.720;2023-08-06T01:19:20;98940.84;;;18.48;96.01
52975;BME280;38839;45.186;5.720;2023-08-06T01:21:46;98933.13;;;18.44;98.17
52975;BME280;38839;45.186;5.720;2023-08-06T01:24:11;98933.25;;;18.39;100.00
52975;BME280;38839;45.186;5.720;2023-08-06T01:26:42;98934.19;;;18.38;100.00
52975;BME280;38839;45.186;5.720;2023-08-06T01:29:17;98940.38;;;18.37;100.00
52975;BME280;38839;45.186;5.720;2023-08-06T01:31:47;98943.84;;;18.39;100.00
52975;BME280;38839;45.186;5.720;2023-08-06T01:34:24;98945.66;;;18.37;100.00
52975;BME280;38839;45.186;5.720;2023-08-06T01:36:51;98936.94;;;18.35;100.00
52975;BME280;38839;45.186;5.720;2023-08-06T01:39:17;98941.38;;;18.35;100.00
52975;BME280;38839;45.186;5.720;2023-08-06T01:41:46;98942.13;;;18.38;100.00
52975;BME280;38839;45.186;5.720;2023-08-06T01:44:11;98936.00;;;18.38;100.00
52975;BME280;38839;45.186;5.720;2023-08-06T01:46:37;98940.28;;;18.40;100.00
52975;BME280;38839;45.186;5.720;2023-08-06T01:49:02;98942.78;;;18.43;100.00
52975;BME280;38839;45.186;5.720;2023-08-06T01:51:28;98944.34;;;18.49;100.00
52975;BME280;38839;45.186;5.720;2023-08-06T01:53:53;98950.47;;;18.49;100.00
52975;BME280;38839;45.186;5.720;2023-08-06T01:56:18;98942.44;;;18.53;100.00
52975;BME280;38839;45.186;5.720;2023-08-06T01:58:44;98943.25;;;18.55;100.00
52975;BME280;38839;45.186;5.720;2023-08-06T02:01:09;98944.16;;;18.54;100.00
52975;BME280;38839;45.186;5.720;2023-08-06T02:03:34;98945.19;;;18.49;100.00
52975;BME280;38839;45.186;5.720;2023-08-06T02:06:00;98946.31;;;18.44;100.00
52975;BME280;38839;45.186;5.720;2023-08-06T02:08:27;98947.97;;;18.46;100.00
52975;BME280;38839;45.186;5.720;2023-08-06T02:10:52;98948.66;;;18.52;100.00
52975;BME280;38839;45.186;5.720;2023-08-06T02:13:18;98947.59;;;18.56;100.00
52975;BME280;38839;45.186;5.720;2023-08-06T02:15:44;98937.84;;;18.58;98.81
52975;BME280;38839;45.186;5.720;2023-08-06T02:18:10;98942.31;;;18.56;97.42
52975;BME280;38839;45.186;5.720;2023-08-06T02:20:36;98945.19;;;18.49;97.20
52975;BME280;38839;45.186;5.720;2023-08-06T02:23:01;98941.88;;;18.44;97.76
52975;BME280;38839;45.186;5.720;2023-08-06T02:25:27;98943.13;;;18.36;98.97
52975;BME280;38839;45.186;5.720;2023-08-06T02:27:52;98945.06;;;18.30;100.00
52975;BME280;38839;45.186;5.720;2023-08-06T02:30:17;98945.19;;;18.27;100.00
52975;BME280;38839;45.186;5.720;2023-08-06T02:32:43;98941.00;;;18.22;100.00
52975;BME280;38839;45.186;5.720;2023-08-06T02:35:08;98958.75;;;18.17;100.00
52975;BME280;38839;45.186;5.720;2023-08-06T02:37:34;98944.91;;;18.12;100.00
52975;BME280;38839;45.186;5.720;2023-08-06T02:40:00;98951.03;;;18.12;100.00
52975;BME280;38839;45.186;5.720;2023-08-06T02:42:25;98947.72;;;18.07;100.00
52975;BME280;38839;45.186;5.720;2023-08-06T02:44:52;98951.44;;;18.01;100.00
52975;BME280;38839;45.186;5.720;2023-08-06T02:47:17;98947.19;;;17.97;100.00
52975;BME280;38839;45.186;5.720;2023-08-06T02:49:43;98948.88;;;17.98;100.00
52975;BME280;38839;45.186;5.720;2023-08-06T02:52:08;98948.56;;;18.07;98.22
52975;BME280;38839;45.186;5.720;2023-08-06T02:54:34;98950.25;;;18.08;98.54
52975;BME280;38839;45.186;5.720;2023-08-06T02:56:59;98949.59;;;18.03;98.71
52975;BME280;38839;45.186;5.720;2023-08-06T02:59:24;98948.78;;;18.01;98.37
52975;BME280;38839;45.186;5.720;2023-08-06T03:01:50;98959.94;;;18.09;97.87
52975;BME280;38839;45.186;5.720;2023-08-06T03:04:15;98961.59;;;18.12;97.46
52975;BME280;38839;45.186;5.720;2023-08-06T03:06:42;98952.91;;;18.08;97.79
52975;BME280;38839;45.186;5.720;2023-08-06T03:09:08;98945.00;;;18.08;95.66
52975;BME280;38839;45.186;5.720;2023-08-06T03:11:33;98940.66;;;18.07;95.46
52975;BME280;38839;45.186;5.720;2023-08-06T03:13:58;98951.78;;;18.16;91.09
52975;BME280;38839;45.186;5.720;2023-08-06T03:16:24;98942.69;;;18.23;87.77
52975;BME280;38839;45.186;5.720;2023-08-06T03:18:49;98951.41;;;18.25;86.83
52975;BME280;38839;45.186;5.720;2023-08-06T03:21:15;98945.91;;;18.31;85.98
52975;BME280;38839;45.186;5.720;2023-08-06T03:23:40;98948.78;;;18.25;86.35
52975;BME280;38839;45.186;5.720;2023-08-06T03:26:05;98958.31;;;18.29;85.94
52975;BME280;38839;45.186;5.720;2023-08-06T03:28:31;98950.22;;;18.34;85.62
52975;BME280;38839;45.186;5.720;2023-08-06T03:31:03;98958.81;;;18.39;84.66
52975;BME280;38839;45.186;5.720;2023-08-06T03:33:29;98957.91;;;18.40;85.17
52975;BME280;38839;45.186;5.720;2023-08-06T03:35:55;98943.72;;;18.42;84.60
52975;BME280;38839;45.186;5.720;2023-08-06T03:38:20;98948.78;;;18.48;83.54
52975;BME280;38839;45.186;5.720;2023-08-06T03:40:46;98942.69;;;18.46;83.78
52975;BME280;38839;45.186;5.720;2023-08-06T03:43:12;98952.56;;;18.41;84.48
52975;BME280;38839;45.186;5.720;2023-08-06T03:45:37;98959.53;;;18.44;84.42
52975;BME280;38839;45.186;5.720;2023-08-06T03:48:02;98955.19;;;18.41;85.19
52975;BME280;38839;45.186;5.720;2023-08-06T03:50:28;98970.25;;;18.39;86.03
52975;BME280;38839;45.186;5.720;2023-08-06T03:52:53;98961.53;;;18.37;86.48
52975;BME280;38839;45.186;5.720;2023-08-06T03:55:18;98959.09;;;18.31;87.75
52975;BME280;38839;45.186;5.720;2023-08-06T03:57:44;98951.31;;;18.28;89.05
52975;BME280;38839;45.186;5.720;2023-08-06T04:00:09;98952.41;;;18.22;89.97
52975;BME280;38839;45.186;5.720;2023-08-06T04:02:35;98974.50;;;18.20;91.10
52975;BME280;38839;45.186;5.720;2023-08-06T04:05:00;98975.59;;;18.14;91.57
52975;BME280;38839;45.186;5.720;2023-08-06T04:07:26;98981.00;;;18.11;92.56
52975;BME280;38839;45.186;5.720;2023-08-06T04:09:58;98981.84;;;18.12;93.13
52975;BME280;38839;45.186;5.720;2023-08-06T04:12:24;98985.53;;;18.07;92.67
52975;BME280;38839;45.186;5.720;2023-08-06T04:14:51;98982.16;;;18.02;93.50
52975;BME280;38839;45.186;5.720;2023-08-06T04:17:17;98992.00;;;17.99;94.08
52975;BME280;38839;45.186;5.720;2023-08-06T04:19:49;98979.06;;;17.91;94.89
52975;BME280;38839;45.186;5.720;2023-08-06T04:22:15;98987.22;;;17.85;95.61
52975;BME280;38839;45.186;5.720;2023-08-06T04:24:41;98982.88;;;17.82;96.38
52975;BME280;38839;45.186;5.720;2023-08-06T04:27:06;98985.56;;;17.81;95.92
52975;BME280;38839;45.186;5.720;2023-08-06T04:29:33;98974.97;;;17.82;95.97
52975;BME280;38839;45.186;5.720;2023-08-06T04:31:58;98980.25;;;17.82;95.20
52975;BME280;38839;45.186;5.720;2023-08-06T04:34:23;98991.75;;;17.80;95.49
52975;BME280;38839;45.186;5.720;2023-08-06T04:36:49;99002.28;;;17.80;95.50
52975;BME280;38839;45.186;5.720;2023-08-06T04:39:14;99006.66;;;17.81;95.08
52975;BME280;38839;45.186;5.720;2023-08-06T04:41:40;99007.50;;;17.83;94.74
52975;BME280;38839;45.186;5.720;2023-08-06T04:44:05;99014.69;;;17.78;94.34
52975;BME280;38839;45.186;5.720;2023-08-06T04:46:31;99006.75;;;17.78;94.11
52975;BME280;38839;45.186;5.720;2023-08-06T04:48:56;99012.81;;;17.81;93.86
52975;BME280;38839;45.186;5.720;2023-08-06T04:51:21;99002.22;;;17.83;93.65
52975;BME280;38839;45.186;5.720;2023-08-06T04:53:47;99005.56;;;17.88;93.27
52975;BME280;38839;45.186;5.720;2023-08-06T04:56:12;99009.13;;;17.87;93.45
52975;BME280;38839;45.186;5.720;2023-08-06T04:58:37;99010.97;;;17.85;93.24
52975;BME280;38839;45.186;5.720;2023-08-06T05:01:03;99014.41;;;17.87;93.04
52975;BME280;38839;45.186;5.720;2023-08-06T05:03:28;99025.13;;;17.81;93.56
52975;BME280;38839;45.186;5.720;2023-08-06T05:05:54;99007.56;;;17.80;93.76
52975;BME280;38839;45.186;5.720;2023-08-06T05:08:19;99013.66;;;17.83;93.83
52975;BME280;38839;45.186;5.720;2023-08-06T05:10:45;99009.41;;;17.78;94.22
52975;BME280;38839;45.186;5.720;2023-08-06T05:13:11;99018.03;;;17.84;94.03
52975;BME280;38839;45.186;5.720;2023-08-06T05:15:36;99017.31;;;17.78;94.27
52975;BME280;38839;45.186;5.720;2023-08-06T05:18:02;99015.56;;;17.78;94.43
52975;BME280;38839;45.186;5.720;2023-08-06T05:20:28;99028.00;;;17.75;94.60
52975;BME280;38839;45.186;5.720;2023-08-06T05:22:53;99008.53;;;17.77;94.28
52975;BME280;38839;45.186;5.720;2023-08-06T05:25:18;99017.19;;;17.82;93.90
52975;BME280;38839;45.186;5.720;2023-08-06T05:27:44;99016.06;;;17.89;93.26
52975;BME280;38839;45.186;5.720;2023-08-06T05:30:09;99018.72;;;17.89;93.22
52975;BME280;38839;45.186;5.720;2023-08-06T05:32:35;99012.34;;;17.95;92.63
52975;BME280;38839;45.186;5.720;2023-08-06T05:35:00;99017.63;;;17.95;92.30
52975;BME280;38839;45.186;5.720;2023-08-06T05:37:26;99008.06;;;17.93;92.19
52975;BME280;38839;45.186;5.720;2023-08-06T05:39:51;99013.38;;;17.91;91.84
52975;BME280;38839;45.186;5.720;2023-08-06T05:42:17;99019.69;;;17.87;91.33
52975;BME280;38839;45.186;5.720;2023-08-06T05:44:42;99026.56;;;17.91;91.17
52975;BME280;38839;45.186;5.720;2023-08-06T05:47:07;99032.72;;;17.92;90.17
52975;BME280;38839;45.186;5.720;2023-08-06T05:49:33;99037.09;;;17.93;90.75
52975;BME280;38839;45.186;5.720;2023-08-06T05:51:58;99043.00;;;17.99;90.38
52975;BME280;38839;45.186;5.720;2023-08-06T05:54:24;99048.25;;;18.01;89.43
52975;BME280;38839;45.186;5.720;2023-08-06T05:56:50;99065.09;;;17.97;89.76
52975;BME280;38839;45.186;5.720;2023-08-06T05:59:15;99069.41;;;17.99;90.08
52975;BME280;38839;45.186;5.720;2023-08-06T06:01:40;99075.69;;;17.95;89.95
52975;BME280;38839;45.186;5.720;2023-08-06T06:04:06;99078.50;;;18.16;88.25
52975;BME280;38839;45.186;5.720;2023-08-06T06:06:31;99078.16;;;18.25;87.70
52975;BME280;38839;45.186;5.720;2023-08-06T06:08:57;99088.31;;;18.12;88.04
52975;BME280;38839;45.186;5.720;2023-08-06T06:11:22;99094.88;;;18.00;89.00
52975;BME280;38839;45.186;5.720;2023-08-06T06:13:51;99108.88;;;18.02;89.03
52975;BME280;38839;45.186;5.720;2023-08-06T06:16:16;99105.44;;;18.00;88.74
52975;BME280;38839;45.186;5.720;2023-08-06T06:18:42;99112.31;;;18.04;88.23
52975;BME280;38839;45.186;5.720;2023-08-06T06:21:07;99105.00;;;18.13;87.86
52975;BME280;38839;45.186;5.720;2023-08-06T06:23:33;99129.53;;;18.16;87.76
52975;BME280;38839;45.186;5.720;2023-08-06T06:25:59;99125.28;;;18.12;87.58
52975;BME280;38839;45.186;5.720;2023-08-06T06:28:24;99124.28;;;18.15;87.65
52975;BME280;38839;45.186;5.720;2023-08-06T06:30:51;99118.38;;;18.08;87.53
52975;BME280;38839;45.186;5.720;2023-08-06T06:33:16;99124.00;;;18.24;87.46
52975;BME280;38839;45.186;5.720;2023-08-06T06:35:42;99138.00;;;18.26;88.55
52975;BME280;38839;45.186;5.720;2023-08-06T06:38:07;99140.69;;;18.24;90.30
52975;BME280;38839;45.186;5.720;2023-08-06T06:40:32;99142.19;;;18.06;92.07
52975;BME280;38839;45.186;5.720;2023-08-06T06:42:58;99132.72;;;18.26;91.09
52975;BME280;38839;45.186;5.720;2023-08-06T06:45:23;99137.41;;;18.18;92.21
52975;BME280;38839;45.186;5.720;2023-08-06T06:47:49;99152.03;;;18.01;94.86
52975;BME280;38839;45.186;5.720;2023-08-06T06:50:14;99162.75;;;17.68;100.00
52975;BME280;38839;45.186;5.720;2023-08-06T06:52:39;99173.22;;;17.43;100.00
52975;BME280;38839;45.186;5.720;2023-08-06T06:55:05;99167.69;;;17.51;100.00
52975;BME280;38839;45.186;5.720;2023-08-06T06:57:30;99184.25;;;17.56;100.00
52975;BME280;38839;45.186;5.720;2023-08-06T06:59:56;99170.06;;;17.60;100.00
52975;BME280;38839;45.186;5.720;2023-08-06T07:02:21;99188.47;;;17.62;100.00
52975;BME280;38839;45.186;5.720;2023-08-06T07:04:46;99177.16;;;17.58;100.00
52975;BME280;38839;45.186;5.720;2023-08-06T07:07:12;99190.09;;;17.66;100.00
52975;BME280;38839;45.186;5.720;2023-08-06T07:09:37;99177.16;;;17.58;95.46
52975;BME280;38839;45.186;5.720;2023-08-06T07:12:03;99199.16;;;17.57;90.51
52975;BME280;38839;45.186;5.720;2023-08-06T07:14:29;99182.22;;;17.64;88.10
52975;BME280;38839;45.186;5.720;2023-08-06T07:16:54;99176.97;;;17.64;88.26
52975;BME280;38839;45.186;5.720;2023-08-06T07:19:20;99174.28;;;17.66;87.95
52975;BME280;38839;45.186;5.720;2023-08-06T07:21:45;99174.16;;;17.69;88.58
52975;BME280;38839;45.186;5.720;2023-08-06T07:24:11;99178.78;;;17.62;88.71
52975;BME280;38839;45.186;5.720;2023-08-06T07:26:37;99181.41;;;17.62;90.16
52975;BME280;38839;45.186;5.720;2023-08-06T07:29:02;99182.13;;;17.67;90.34
52975;BME280;38839;45.186;5.720;2023-08-06T07:31:28;99188.31;;;17.66;90.87
52975;BME280;38839;45.186;5.720;2023-08-06T07:33:53;99192.97;;;17.58;90.76
52975;BME280;38839;45.186;5.720;2023-08-06T07:36:18;99194.81;;;17.56;90.71
52975;BME280;38839;45.186;5.720;2023-08-06T07:38:44;99203.59;;;17.55;91.61
52975;BME280;38839;45.186;5.720;2023-08-06T07:41:09;99200.66;;;17.66;91.84
52975;BME280;38839;45.186;5.720;2023-08-06T07:43:35;99195.84;;;17.79;92.41
52975;BME280;38839;45.186;5.720;2023-08-06T07:46:03;99205.31;;;17.86;91.41
52975;BME280;38839;45.186;5.720;2023-08-06T07:48:29;99220.06;;;17.93;91.57
52975;BME280;38839;45.186;5.720;2023-08-06T07:50:55;99216.41;;;17.97;91.34
52975;BME280;38839;45.186;5.720;2023-08-06T07:53:21;99222.25;;;18.07;91.00
52975;BME280;38839;45.186;5.720;2023-08-06T07:55:50;99217.31;;;18.23;90.72
52975;BME280;38839;45.186;5.720;2023-08-06T07:58:16;99203.81;;;18.32;90.49
52975;BME280;38839;45.186;5.720;2023-08-06T08:00:41;99214.97;;;18.40;88.88
52975;BME280;38839;45.186;5.720;2023-08-06T08:03:13;99214.19;;;18.88;86.57
52975;BME280;38839;45.186;5.720;2023-08-06T08:05:39;99209.78;;;18.89;85.83
52975;BME280;38839;45.186;5.720;2023-08-06T08:08:05;99213.28;;;19.13;85.73
52975;BME280;38839;45.186;5.720;2023-08-06T08:10:31;99202.06;;;19.77;81.68
52975;BME280;38839;45.186;5.720;2023-08-06T08:12:57;99207.16;;;19.58;81.89
52975;BME280;38839;45.186;5.720;2023-08-06T08:15:22;99225.97;;;19.28;83.36
52975;BME280;38839;45.186;5.720;2023-08-06T08:17:48;99222.25;;;18.85;86.20
52975;BME280;38839;45.186;5.720;2023-08-06T08:20:14;99226.41;;;18.66;88.55
52975;BME280;38839;45.186;5.720;2023-08-06T08:22:40;99227.09;;;18.73;88.12
52975;BME280;38839;45.186;5.720;2023-08-06T08:25:05;99227.81;;;18.76;88.26
52975;BME280;38839;45.186;5.720;2023-08-06T08:27:31;99236.50;;;18.81;88.20
52975;BME280;38839;45.186;5.720;2023-08-06T08:29:57;99232.47;;;18.95;88.58
52975;BME280;38839;45.186;5.720;2023-08-06T08:32:22;99231.59;;;19.43;85.78
52975;BME280;38839;45.186;5.720;2023-08-06T08:34:48;99231.44;;;19.69;83.87
52975;BME280;38839;45.186;5.720;2023-08-06T08:37:13;99224.75;;;19.83;81.57
52975;BME280;38839;45.186;5.720;2023-08-06T08:39:39;99230.63;;;19.91;80.18
52975;BME280;38839;45.186;5.720;2023-08-06T08:42:05;99223.09;;;19.80;79.75
52975;BME280;38839;45.186;5.720;2023-08-06T08:44:32;99234.75;;;19.29;81.38
52975;BME280;38839;45.186;5.720;2023-08-06T08:46:59;99238.72;;;19.17;83.43
52975;BME280;38839;45.186;5.720;2023-08-06T08:49:26;99245.34;;;19.05;83.93
52975;BME280;38839;45.186;5.720;2023-08-06T08:51:53;99228.34;;;18.87;84.75
52975;BME280;38839;45.186;5.720;2023-08-06T08:54:23;99237.75;;;19.20;82.93
52975;BME280;38839;45.186;5.720;2023-08-06T08:56:48;99238.53;;;19.45;79.69
52975;BME280;38839;45.186;5.720;2023-08-06T08:59:14;99233.94;;;19.96;76.97
52975;BME280;38839;45.186;5.720;2023-08-06T09:01:40;99232.00;;;20.22;74.80
52975;BME280;38839;45.186;5.720;2023-08-06T09:04:07;99239.34;;;20.37;73.98
52975;BME280;38839;45.186;5.720;2023-08-06T09:06:37;99250.19;;;19.87;75.66
52975;BME280;38839;45.186;5.720;2023-08-06T09:09:08;99237.09;;;19.84;77.25
52975;BME280;38839;45.186;5.720;2023-08-06T09:11:39;99248.09;;;19.95;77.57
52975;BME280;38839;45.186;5.720;2023-08-06T09:14:07;99241.94;;;20.17;77.48
52975;BME280;38839;45.186;5.720;2023-08-06T09:16:36;99243.09;;;20.09;78.33
52975;BME280;38839;45.186;5.720;2023-08-06T09:19:11;99259.31;;;19.80;81.04
52975;BME280;38839;45.186;5.720;2023-08-06T09:21:43;99255.78;;;19.56;81.81
52975;BME280;38839;45.186;5.720;2023-08-06T09:24:09;99260.94;;;19.37;84.31
52975;BME280;38839;45.186;5.720;2023-08-06T09:26:39;99245.13;;;19.81;82.74
52975;BME280;38839;45.186;5.720;2023-08-06T09:29:06;99248.84;;;19.99;80.34
52975;BME280;38839;45.186;5.720;2023-08-06T09:31:42;99252.66;;;20.14;77.87
52975;BME280;38839;45.186;5.720;2023-08-06T09:34:18;99238.94;;;20.46;75.48
52975;BME280;38839;45.186;5.720;2023-08-06T09:36:52;99249.00;;;20.38;73.95
52975;BME280;38839;45.186;5.720;2023-08-06T09:39:19;99246.00;;;20.25;73.69
52975;BME280;38839;45.186;5.720;2023-08-06T09:41:45;99249.97;;;20.99;71.20
52975;BME280;38839;45.186;5.720;2023-08-06T09:44:20;99249.25;;;21.35;68.11
52975;BME280;38839;45.186;5.720;2023-08-06T09:46:53;99244.56;;;22.16;64.50
52975;BME280;38839;45.186;5.720;2023-08-06T09:49:21;99249.91;;;22.33;63.52
52975;BME280;38839;45.186;5.720;2023-08-06T09:51:47;99246.91;;;22.22;63.50
52975;BME280;38839;45.186;5.720;2023-08-06T09:54:16;99245.69;;;22.29;63.46
52975;BME280;38839;45.186;5.720;2023-08-06T09:56:43;99241.44;;;22.07;63.71
52975;BME280;38839;45.186;5.720;2023-08-06T09:59:09;99245.13;;;21.48;65.34
52975;BME280;38839;45.186;5.720;2023-08-06T10:01:36;99237.47;;;21.21;66.78
52975;BME280;38839;45.186;5.720;2023-08-06T10:04:03;99248.09;;;21.21;66.28
52975;BME280;38839;45.186;5.720;2023-08-06T10:06:29;99241.38;;;20.73;66.06
52975;BME280;38839;45.186;5.720;2023-08-06T10:08:55;99245.28;;;20.42;66.72
52975;BME280;38839;45.186;5.720;2023-08-06T10:11:24;99247.69;;;20.48;66.37
52975;BME280;38839;45.186;5.720;2023-08-06T10:16:34;99242.91;;;20.36;66.51
52975;BME280;38839;45.186;5.720;2023-08-06T10:19:02;99254.22;;;20.62;65.99
52975;BME280;38839;45.186;5.720;2023-08-06T10:21:30;99252.13;;;20.70;66.44
52975;BME280;38839;45.186;5.720;2023-08-06T10:23:56;99256.34;;;20.74;67.03
52975;BME280;38839;45.186;5.720;2023-08-06T10:26:26;99265.91;;;20.78;66.78
52975;BME280;38839;45.186;5.720;2023-08-06T10:28:52;99267.88;;;20.94;67.34
52975;BME280;38839;45.186;5.720;2023-08-06T10:31:18;99259.91;;;20.94;66.63
52975;BME280;38839;45.186;5.720;2023-08-06T10:33:47;99272.22;;;21.36;66.00
52975;BME280;38839;45.186;5.720;2023-08-06T10:36:14;99257.56;;;21.66;64.82
52975;BME280;38839;45.186;5.720;2023-08-06T10:38:48;99278.97;;;21.43;63.85
52975;BME280;38839;45.186;5.720;2023-08-06T10:41:28;99272.53;;;20.88;64.80
52975;BME280;38839;45.186;5.720;2023-08-06T10:44:14;99287.22;;;20.75;65.29
52975;BME280;38839;45.186;5.720;2023-08-06T10:46:39;99284.41;;;20.59;64.87
52975;BME280;38839;45.186;5.720;2023-08-06T10:49:05;99290.47;;;20.39;64.63
52975;BME280;38839;45.186;5.720;2023-08-06T10:51:32;99283.59;;;20.35;64.55
52975;BME280;38839;45.186;5.720;2023-08-06T10:53:58;99274.19;;;20.70;63.98
52975;BME280;38839;45.186;5.720;2023-08-06T10:56:25;99279.78;;;20.63;64.01
52975;BME280;38839;45.186;5.720;2023-08-06T10:58:53;99276.09;;;20.67;65.07
52975;BME280;38839;45.186;5.720;2023-08-06T11:01:19;99276.50;;;20.78;64.88
52975;BME280;38839;45.186;5.720;2023-08-06T11:03:46;99272.06;;;20.57;64.16
52975;BME280;38839;45.186;5.720;2023-08-06T11:06:20;99264.53;;;20.47;63.33
52975;BME280;38839;45.186;5.720;2023-08-06T11:08:50;99262.78;;;20.89;62.68
52975;BME280;38839;45.186;5.720;2023-08-06T11:11:17;99264.78;;;21.04;62.24
52975;BME280;38839;45.186;5.720;2023-08-06T11:13:50;99252.97;;;21.30;61.87
52975;BME280;38839;45.186;5.720;2023-08-06T11:16:18;99246.25;;;21.03;61.93
52975;BME280;38839;45.186;5.720;2023-08-06T11:18:44;99249.41;;;21.32;60.73
52975;BME280;38839;45.186;5.720;2023-08-06T11:21:09;99236.25;;;21.28;60.34
52975;BME280;38839;45.186;5.720;2023-08-06T11:23:35;99244.66;;;21.38;60.19
52975;BME280;38839;45.186;5.720;2023-08-06T11:26:01;99234.81;;;21.61;59.55
52975;BME280;38839;45.186;5.720;2023-08-06T11:28:26;99230.75;;;21.33;60.26
52975;BME280;38839;45.186;5.720;2023-08-06T11:30:53;99236.38;;;21.46;60.53
52975;BME280;38839;45.186;5.720;2023-08-06T11:33:22;99239.38;;;21.57;59.74
52975;BME280;38839;45.186;5.720;2023-08-06T11:35:50;99228.00;;;21.35;60.52
52975;BME280;38839;45.186;5.720;2023-08-06T11:38:16;99220.84;;;21.18;60.79
52975;BME280;38839;45.186;5.720;2023-08-06T11:40:44;99220.72;;;21.40;60.22
52975;BME280;38839;45.186;5.720;2023-08-06T11:43:10;99223.63;;;21.54;59.78
52975;BME280;38839;45.186;5.720;2023-08-06T11:45:35;99222.41;;;21.41;60.04
52975;BME280;38839;45.186;5.720;2023-08-06T11:48:01;99219.09;;;21.56;58.71
52975;BME280;38839;45.186;5.720;2023-08-06T11:50:27;99222.88;;;21.69;57.87
52975;BME280;38839;45.186;5.720;2023-08-06T11:52:56;99221.53;;;21.61;57.24
52975;BME280;38839;45.186;5.720;2023-08-06T11:55:24;99225.91;;;21.81;56.70
52975;BME280;38839;45.186;5.720;2023-08-06T11:57:50;99214.91;;;22.25;55.38
52975;BME280;38839;45.186;5.720;2023-08-06T12:00:15;99219.13;;;21.93;54.86
52975;BME280;38839;45.186;5.720;2023-08-06T12:02:45;99226.69;;;22.00;55.47
52975;BME280;38839;45.186;5.720;2023-08-06T12:05:12;99219.31;;;21.70;56.51
52975;BME280;38839;45.186;5.720;2023-08-06T12:07:39;99230.06;;;21.48;57.16
52975;BME280;38839;45.186;5.720;2023-08-06T12:10:05;99237.31;;;21.45;57.50
52975;BME280;38839;45.186;5.720;2023-08-06T12:12:31;99251.19;;;21.31;58.51
52975;BME280;38839;45.186;5.720;2023-08-06T12:14:57;99235.88;;;21.57;58.39
52975;BME280;38839;45.186;5.720;2023-08-06T12:17:24;99250.72;;;21.80;57.95
52975;BME280;38839;45.186;5.720;2023-08-06T12:19:49;99238.00;;;22.23;56.79
52975;BME280;38839;45.186;5.720;2023-08-06T12:22:15;99239.78;;;21.86;57.40
52975;BME280;38839;45.186;5.720;2023-08-06T12:24:45;99242.56;;;22.02;56.89
52975;BME280;38839;45.186;5.720;2023-08-06T12:27:11;99237.91;;;22.26;55.80
52975;BME280;38839;45.186;5.720;2023-08-06T12:29:40;99248.31;;;22.12;55.89
52975;BME280;38839;45.186;5.720;2023-08-06T12:32:06;99248.34;;;22.29;55.23
52975;BME280;38839;45.186;5.720;2023-08-06T12:34:31;99258.84;;;22.32;55.20
52975;BME280;38839;45.186;5.720;2023-08-06T12:36:57;99250.06;;;21.94;55.67
52975;BME280;38839;45.186;5.720;2023-08-06T12:39:22;99239.09;;;22.19;55.01
52975;BME280;38839;45.186;5.720;2023-08-06T12:41:48;99236.72;;;22.13;55.39
52975;BME280;38839;45.186;5.720;2023-08-06T12:44:14;99238.31;;;22.17;54.60
52975;BME280;38839;45.186;5.720;2023-08-06T12:46:39;99242.91;;;22.32;54.02
52975;BME280;38839;45.186;5.720;2023-08-06T12:49:04;99245.09;;;22.59;53.77
52975;BME280;38839;45.186;5.720;2023-08-06T12:51:30;99244.22;;;22.04;54.57
52975;BME280;38839;45.186;5.720;2023-08-06T12:53:56;99255.31;;;22.13;54.92
52975;BME280;38839;45.186;5.720;2023-08-06T12:56:21;99261.78;;;21.70;55.92
52975;BME280;38839;45.186;5.720;2023-08-06T12:58:47;99255.75;;;21.48;56.88